createdAt,value
2023-03-21T00:00:26.291Z,22.27
2023-03-21T00:02:52.995Z,21.13
2023-03-21T00:05:20.758Z,23.15
2023-03-21T00:07:47.667Z,23.27
2023-03-21T00:10:18.249Z,19.33
2023-03-21T00:12:58.378Z,19.48
2023-03-21T00:15:41.130Z,21.95
2023-03-21T00:18:12.803Z,24.27
2023-03-21T00:20:39.378Z,22.13
2023-03-21T00:23:06.020Z,22.38
2023-03-21T00:25:33.011Z,20.15
2023-03-21T00:28:07.792Z,20.65
2023-03-21T00:30:35.377Z,22.10
2023-03-21T00:33:12.101Z,18.05
2023-03-21T00:36:04.725Z,19.17
2023-03-21T00:38:31.987Z,21.48
2023-03-21T00:41:04.737Z,20.83
2023-03-21T00:43:34.351Z,19.77
2023-03-21T00:46:01.499Z,17.80
2023-03-21T00:48:28.403Z,19.58
2023-03-21T00:50:57.176Z,19.77
2023-03-21T00:53:24.150Z,18.08
2023-03-21T00:55:50.867Z,22.63
2023-03-21T00:58:18.470Z,20.63
2023-03-21T01:00:49.130Z,23.00
2023-03-21T01:03:24.353Z,18.08
2023-03-21T01:06:07.370Z,17.35
2023-03-21T01:08:53.582Z,19.92
2023-03-21T01:11:24.598Z,19.55
2023-03-21T01:13:59.800Z,17.43
2023-03-21T01:16:34.711Z,20.40
2023-03-21T01:19:04.757Z,20.90
2023-03-21T01:21:32.196Z,19.42
2023-03-21T01:23:59.090Z,18.83
2023-03-21T01:26:25.737Z,19.02
2023-03-21T01:28:52.402Z,19.58
2023-03-21T01:31:19.678Z,19.58
2023-03-21T01:33:46.823Z,20.92
2023-03-21T01:36:24.074Z,23.52
2023-03-21T01:38:51.770Z,25.98
2023-03-21T01:41:33.489Z,24.02
2023-03-21T01:44:04.295Z,24.02
2023-03-21T01:46:54.010Z,24.90
2023-03-21T01:49:34.099Z,24.88
2023-03-21T01:52:13.206Z,27.73
2023-03-21T01:54:43.574Z,30.58
2023-03-21T01:57:16.896Z,25.30
2023-03-21T01:59:50.001Z,26.20
2023-03-21T02:02:23.217Z,31.55
2023-03-21T02:04:51.337Z,27.25
2023-03-21T02:07:29.643Z,27.15
2023-03-21T02:09:57.918Z,26.45
2023-03-21T02:12:26.339Z,25.95
2023-03-21T02:14:54.601Z,26.75
2023-03-21T02:17:41.791Z,28.75
2023-03-21T02:20:17.712Z,30.92
2023-03-21T02:23:00.122Z,31.00
2023-03-21T02:25:44.973Z,28.63
2023-03-21T02:28:34.163Z,32.30
2023-03-21T02:31:37.474Z,32.78
2023-03-21T02:34:41.598Z,32.67
2023-03-21T02:37:36.566Z,30.63
2023-03-21T02:40:21.120Z,33.08
2023-03-21T02:43:00.005Z,37.42
2023-03-21T02:45:38.789Z,32.60
2023-03-21T02:48:20.319Z,33.22
2023-03-21T02:50:55.432Z,33.95
2023-03-21T02:53:25.567Z,30.20
2023-03-21T02:55:53.404Z,33.67
2023-03-21T02:58:24.437Z,35.53
2023-03-21T03:00:55.444Z,34.08
2023-03-21T03:03:33.446Z,36.90
2023-03-21T03:06:02.324Z,34.53
2023-03-21T03:08:56.344Z,30.13
2023-03-21T03:11:41.502Z,30.52
2023-03-21T03:14:40.034Z,30.83
2023-03-21T03:17:17.577Z,25.63
2023-03-21T03:20:28.936Z,26.40
2023-03-21T03:23:16.050Z,30.98
2023-03-21T03:25:54.031Z,27.17
2023-03-21T03:28:26.569Z,24.83
2023-03-21T03:31:08.025Z,24.30
2023-03-21T03:33:38.356Z,28.20
2023-03-21T03:36:10.877Z,23.13
2023-03-21T03:38:39.240Z,24.45
2023-03-21T03:41:15.393Z,27.90
2023-03-21T03:43:48.735Z,27.67
2023-03-21T03:46:22.614Z,26.98
2023-03-21T03:48:54.915Z,24.48
2023-03-21T03:51:36.723Z,21.67
2023-03-21T03:54:09.972Z,22.27
2023-03-21T03:56:37.419Z,20.98
2023-03-21T03:59:05.276Z,30.23
2023-03-21T04:01:31.898Z,20.33
2023-03-21T04:04:12.328Z,22.67
2023-03-21T04:06:39.482Z,25.05
2023-03-21T04:09:19.166Z,24.83
2023-03-21T04:11:46.775Z,19.48
2023-03-21T04:14:13.717Z,22.08
2023-03-21T04:16:40.420Z,21.70
2023-03-21T04:19:07.177Z,22.05
2023-03-21T04:21:33.948Z,21.20
2023-03-21T04:24:01.231Z,22.02
2023-03-21T04:26:32.926Z,26.13
2023-03-21T04:29:00.858Z,24.75
2023-03-21T04:31:30.872Z,26.52
2023-03-21T04:33:59.429Z,27.38
2023-03-21T04:36:30.576Z,30.20
2023-03-21T04:39:01.516Z,24.50
2023-03-21T04:41:29.005Z,30.20
2023-03-21T04:43:56.447Z,28.60
2023-03-21T04:46:23.855Z,30.63
2023-03-21T04:48:50.681Z,32.60
2023-03-21T04:51:17.341Z,33.55
2023-03-21T04:53:45.880Z,37.95
2023-03-21T04:56:13.177Z,31.88
2023-03-21T04:58:40.621Z,32.63
2023-03-21T05:01:08.466Z,36.67
2023-03-21T05:03:40.240Z,29.27
2023-03-21T05:06:08.858Z,37.20
2023-03-21T05:08:36.467Z,36.80
2023-03-21T05:11:03.924Z,35.13
2023-03-21T05:13:30.624Z,36.15
2023-03-21T05:15:57.226Z,33.10
2023-03-21T05:18:26.919Z,31.75
2023-03-21T05:20:55.175Z,30.13
2023-03-21T05:23:23.038Z,30.98
2023-03-21T05:25:50.325Z,30.15
2023-03-21T05:28:20.259Z,33.20
2023-03-21T05:30:47.024Z,30.90
2023-03-21T05:33:13.937Z,27.65
2023-03-21T05:35:40.952Z,26.83
2023-03-21T05:38:07.934Z,26.30
2023-03-21T05:40:34.651Z,26.80
2023-03-21T05:43:01.393Z,30.15
2023-03-21T05:45:27.951Z,29.52
2023-03-21T05:47:54.667Z,25.35
2023-03-21T05:50:21.366Z,28.20
2023-03-21T05:52:48.041Z,24.60
2023-03-21T05:55:14.720Z,29.38
2023-03-21T05:57:41.407Z,25.38
2023-03-21T06:00:09.130Z,28.38
2023-03-21T06:02:35.898Z,29.48
2023-03-21T06:05:02.634Z,36.22
2023-03-21T06:07:29.350Z,33.85
2023-03-21T06:09:56.042Z,25.40
2023-03-21T06:12:23.020Z,32.67
2023-03-21T06:14:49.701Z,25.95
2023-03-21T06:17:16.611Z,25.80
2023-03-21T06:19:43.224Z,24.92
2023-03-21T06:22:09.900Z,24.83
2023-03-21T06:24:36.615Z,27.35
2023-03-21T06:27:04.128Z,24.52
2023-03-21T06:29:31.220Z,26.40
2023-03-21T06:31:57.922Z,28.70
2023-03-21T06:34:24.703Z,25.15
2023-03-21T06:36:52.119Z,23.58
2023-03-21T06:39:18.800Z,26.98
2023-03-21T06:41:45.506Z,26.38
2023-03-21T06:44:12.148Z,28.27
2023-03-21T06:46:38.813Z,22.40
2023-03-21T06:49:05.489Z,21.20
2023-03-21T06:51:32.203Z,21.90
2023-03-21T06:53:58.885Z,20.08
2023-03-21T06:56:25.890Z,21.05
2023-03-21T06:58:52.541Z,23.70
2023-03-21T07:01:19.355Z,24.30
2023-03-21T07:03:46.374Z,27.17
2023-03-21T07:06:13.532Z,25.48
2023-03-21T07:08:41.180Z,22.85
2023-03-21T07:11:09.101Z,20.55
2023-03-21T07:13:35.995Z,27.52
2023-03-21T07:16:02.975Z,23.50
2023-03-21T07:18:30.875Z,18.80
2023-03-21T07:20:57.817Z,21.55
2023-03-21T07:23:25.925Z,20.80
2023-03-21T07:25:53.538Z,22.48
2023-03-21T07:28:21.346Z,22.08
2023-03-21T07:30:54.413Z,25.65
2023-03-21T07:33:21.384Z,20.00
2023-03-21T07:35:48.031Z,17.40
2023-03-21T07:38:16.830Z,18.15
2023-03-21T07:40:44.576Z,21.83
2023-03-21T07:43:11.335Z,19.80
2023-03-21T07:45:38.540Z,20.58
2023-03-21T07:48:05.426Z,24.73
2023-03-21T07:50:32.168Z,20.85
2023-03-21T07:52:58.794Z,18.95
2023-03-21T07:55:25.524Z,21.05
2023-03-21T07:57:52.756Z,16.35
2023-03-21T08:00:23.363Z,16.45
2023-03-21T08:02:58.356Z,20.02
2023-03-21T08:05:29.037Z,20.23
2023-03-21T08:07:56.075Z,24.05
2023-03-21T08:10:23.162Z,24.42
2023-03-21T08:12:49.819Z,21.65
2023-03-21T08:15:16.924Z,17.15
2023-03-21T08:17:45.544Z,16.73
2023-03-21T08:20:18.465Z,18.33
2023-03-21T08:22:45.347Z,22.85
2023-03-21T08:25:13.985Z,22.80
2023-03-21T08:27:42.408Z,18.08
2023-03-21T08:30:12.252Z,19.30
2023-03-21T08:32:39.518Z,19.65
2023-03-21T08:35:11.527Z,23.60
2023-03-21T08:37:39.855Z,20.27
2023-03-21T08:40:11.226Z,18.60
2023-03-21T08:42:38.904Z,18.30
2023-03-21T08:45:06.727Z,17.92
2023-03-21T08:47:33.460Z,16.42
2023-03-21T08:50:00.324Z,16.50
2023-03-21T08:52:27.533Z,18.50
2023-03-21T08:54:54.846Z,13.30
2023-03-21T08:57:21.776Z,15.57
2023-03-21T08:59:48.512Z,17.80
2023-03-21T09:02:16.932Z,14.45
2023-03-21T09:04:44.755Z,15.57
2023-03-21T09:07:14.321Z,14.73
2023-03-21T09:09:41.716Z,17.13
2023-03-21T09:12:08.689Z,13.68
2023-03-21T09:14:35.888Z,12.80
2023-03-21T09:17:02.652Z,15.05
2023-03-21T09:19:30.003Z,11.82
2023-03-21T09:21:57.493Z,20.30
2023-03-21T09:24:24.170Z,13.00
2023-03-21T09:26:51.624Z,13.38
2023-03-21T09:29:23.120Z,16.67
2023-03-21T09:31:49.798Z,13.25
2023-03-21T09:34:16.664Z,12.25
2023-03-21T09:36:48.435Z,16.88
2023-03-21T09:41:45.732Z,15.75
2023-03-21T09:44:37.994Z,11.35
2023-03-21T09:47:21.553Z,11.68
2023-03-21T09:50:13.471Z,14.75
2023-03-21T09:52:55.373Z,11.50
2023-03-21T09:55:30.825Z,13.40
2023-03-21T09:58:05.675Z,13.85
2023-03-21T10:00:39.781Z,15.60
2023-03-21T10:03:26.185Z,13.27
2023-03-21T10:05:58.635Z,14.00
2023-03-21T10:08:31.044Z,14.75
2023-03-21T10:11:05.160Z,15.15
2023-03-21T10:13:35.869Z,17.63
2023-03-21T10:16:14.322Z,9.82
2023-03-21T10:18:43.112Z,15.02
2023-03-21T10:21:43.057Z,13.63
2023-03-21T10:24:06.383Z,14.20
2023-03-21T10:26:33.185Z,19.95
2023-03-21T10:29:02.351Z,14.85
2023-03-21T10:31:31.245Z,18.02
2023-03-21T10:34:02.109Z,13.20
2023-03-21T10:36:31.889Z,15.40
2023-03-21T10:39:06.990Z,15.77
2023-03-21T10:41:34.602Z,16.38
2023-03-21T10:44:14.691Z,15.57
2023-03-21T10:46:56.110Z,13.63
2023-03-21T10:49:23.567Z,11.90
2023-03-21T10:51:53.177Z,11.38
2023-03-21T10:54:22.871Z,16.85
2023-03-21T10:57:00.629Z,13.80
2023-03-21T10:59:34.547Z,9.75
2023-03-21T11:02:05.070Z,14.43
2023-03-21T11:04:32.431Z,11.95
2023-03-21T11:07:06.924Z,13.48
2023-03-21T11:09:47.100Z,13.85
2023-03-21T11:12:19.058Z,10.60
2023-03-21T11:14:49.002Z,13.23
2023-03-21T11:17:18.707Z,13.88
2023-03-21T11:19:49.496Z,12.93
2023-03-21T11:22:18.505Z,10.75
2023-03-21T11:24:51.316Z,15.82
2023-03-21T11:27:18.252Z,13.05
2023-03-21T11:29:51.073Z,17.90
2023-03-21T11:32:30.922Z,13.75
2023-03-21T11:35:00.524Z,15.30
2023-03-21T11:37:32.271Z,12.70
2023-03-21T11:42:48.133Z,18.08
2023-03-21T11:45:18.933Z,12.02
2023-03-21T11:47:46.985Z,10.38
2023-03-21T11:50:18.492Z,17.20
2023-03-21T11:53:27.904Z,12.30
2023-03-21T11:56:07.173Z,14.20
2023-03-21T11:58:50.649Z,12.85
2023-03-21T12:01:52.868Z,15.48
2023-03-21T12:07:39.385Z,10.73
2023-03-21T12:10:31.707Z,17.23
2023-03-21T12:13:10.515Z,11.02
2023-03-21T12:15:42.559Z,18.75
2023-03-21T12:18:41.938Z,12.52
2023-03-21T12:21:27.251Z,16.15
2023-03-21T12:23:56.879Z,15.13
2023-03-21T12:26:36.409Z,16.02
2023-03-21T12:29:34.592Z,11.00
2023-03-21T12:32:18.276Z,14.45
2023-03-21T12:34:57.535Z,15.32
2023-03-21T12:37:45.308Z,13.20
2023-03-21T12:40:17.133Z,10.63
2023-03-21T12:42:54.784Z,14.00
2023-03-21T12:45:29.446Z,10.43
2023-03-21T12:48:15.445Z,17.42
2023-03-21T12:50:43.009Z,15.18
2023-03-21T12:53:27.862Z,13.35
2023-03-21T12:56:01.362Z,15.18
2023-03-21T12:58:29.889Z,14.55
2023-03-21T13:01:02.976Z,8.30
2023-03-21T13:03:45.272Z,9.80
2023-03-21T13:06:15.384Z,11.40
2023-03-21T13:08:51.330Z,9.90
2023-03-21T13:11:22.702Z,11.43
2023-03-21T13:14:27.533Z,9.05
2023-03-21T13:17:01.393Z,9.68
2023-03-21T13:20:15.378Z,10.05
2023-03-21T13:22:42.169Z,9.32
2023-03-21T13:25:24.922Z,9.70
2023-03-21T13:27:53.039Z,12.00
2023-03-21T13:30:28.171Z,8.60
2023-03-21T13:33:14.413Z,12.23
2023-03-21T13:35:44.525Z,10.13
2023-03-21T13:38:14.114Z,10.00
2023-03-21T13:40:51.262Z,14.25
2023-03-21T13:43:40.845Z,10.30
2023-03-21T13:46:10.371Z,8.95
2023-03-21T13:49:07.842Z,11.32
2023-03-21T13:51:43.208Z,10.75
2023-03-21T13:54:16.316Z,13.05
2023-03-21T13:56:49.768Z,8.77
2023-03-21T13:59:44.777Z,11.63
2023-03-21T14:02:37.734Z,9.68
2023-03-21T14:05:14.636Z,14.05
2023-03-21T14:07:44.484Z,11.75
2023-03-21T14:10:33.374Z,11.85
2023-03-21T14:13:00.824Z,11.77
2023-03-21T14:15:40.950Z,10.27
2023-03-21T14:18:27.603Z,13.48
2023-03-21T14:21:02.337Z,16.73
2023-03-21T14:23:30.237Z,13.07
2023-03-21T14:25:56.955Z,20.55
2023-03-21T14:28:29.952Z,13.93
2023-03-21T14:31:00.051Z,12.02
2023-03-21T14:33:40.121Z,11.07
2023-03-21T14:36:12.276Z,9.38
2023-03-21T14:38:40.170Z,10.77
2023-03-21T14:41:21.528Z,11.32
2023-03-21T14:44:26.129Z,11.77
2023-03-21T14:47:14.301Z,13.30
2023-03-21T14:49:41.120Z,14.02
2023-03-21T14:52:16.025Z,11.98
2023-03-21T14:54:46.351Z,14.65
2023-03-21T14:57:24.873Z,12.23
2023-03-21T14:59:54.766Z,10.45
2023-03-21T15:02:29.109Z,12.70
2023-03-21T15:04:58.152Z,14.82
2023-03-21T15:07:32.267Z,9.95
2023-03-21T15:10:21.693Z,9.60
2023-03-21T15:12:57.640Z,12.57
2023-03-21T15:15:36.739Z,10.13
2023-03-21T15:18:06.995Z,11.90
2023-03-21T15:20:37.621Z,12.07
2023-03-21T15:23:09.774Z,12.32
2023-03-21T15:25:37.614Z,11.93
2023-03-21T15:28:06.213Z,10.27
2023-03-21T15:30:34.216Z,10.88
2023-03-21T15:33:12.841Z,12.15
2023-03-21T15:35:43.692Z,11.93
2023-03-21T15:38:37.240Z,8.98
2023-03-21T15:41:18.752Z,13.07
2023-03-21T15:43:46.824Z,12.57
2023-03-21T15:46:31.933Z,10.40
2023-03-21T15:49:14.538Z,11.32
2023-03-21T15:51:44.861Z,10.40
2023-03-21T15:54:16.360Z,8.60
2023-03-21T15:56:46.019Z,11.38
2023-03-21T15:59:18.084Z,12.73
2023-03-21T16:01:48.813Z,9.90
2023-03-21T16:06:58.811Z,12.60
2023-03-21T16:09:26.390Z,9.73
2023-03-21T16:11:58.748Z,12.38
2023-03-21T16:14:29.550Z,13.98
2023-03-21T16:16:58.963Z,7.82
2023-03-21T16:19:27.632Z,9.05
2023-03-21T16:21:54.306Z,10.07
2023-03-21T16:24:20.996Z,12.40
2023-03-21T16:26:52.000Z,11.10
2023-03-21T16:29:19.581Z,8.77
2023-03-21T16:31:48.229Z,12.38
2023-03-21T16:34:15.373Z,10.35
2023-03-21T16:36:43.384Z,11.57
2023-03-21T16:39:18.896Z,12.73
2023-03-21T16:41:46.129Z,8.98
2023-03-21T16:44:12.935Z,7.78
2023-03-21T16:46:39.674Z,8.98
2023-03-21T16:49:19.218Z,8.05
2023-03-21T16:51:45.843Z,9.35
2023-03-21T16:54:12.505Z,7.45
2023-03-21T16:56:43.056Z,7.57
2023-03-21T16:59:13.333Z,10.43
2023-03-21T17:01:41.349Z,8.95
2023-03-21T17:04:08.978Z,10.10
2023-03-21T17:06:47.339Z,8.77
2023-03-21T17:09:15.572Z,7.07
2023-03-21T17:11:42.935Z,7.38
2023-03-21T17:14:10.894Z,8.98
2023-03-21T17:16:40.194Z,8.70
2023-03-21T17:19:26.454Z,6.78
2023-03-21T17:21:53.323Z,7.53
2023-03-21T17:24:20.036Z,6.63
2023-03-21T17:26:46.783Z,7.63
2023-03-21T17:29:15.430Z,9.50
2023-03-21T17:31:43.865Z,12.00
2023-03-21T17:34:11.075Z,9.32
2023-03-21T17:36:41.109Z,9.93
2023-03-21T17:39:14.094Z,9.60
2023-03-21T17:41:41.258Z,8.73
2023-03-21T17:44:07.883Z,11.02
2023-03-21T17:46:37.195Z,13.27
2023-03-21T17:49:05.330Z,15.10
2023-03-21T17:51:33.075Z,9.80
2023-03-21T17:54:00.296Z,10.73
2023-03-21T17:56:30.661Z,9.48
2023-03-21T17:59:03.455Z,13.18
2023-03-21T18:01:31.044Z,11.23
2023-03-21T18:03:58.905Z,10.13
2023-03-21T18:06:26.545Z,14.75
2023-03-21T18:08:54.553Z,8.68
2023-03-21T18:11:22.886Z,8.98
2023-03-21T18:13:49.850Z,9.38
2023-03-21T18:16:22.755Z,8.18
2023-03-21T18:18:50.966Z,9.88
2023-03-21T18:21:20.177Z,12.80
2023-03-21T18:23:47.566Z,9.23
2023-03-21T18:26:24.034Z,9.40
2023-03-21T18:29:43.896Z,10.07
2023-03-21T18:31:38.235Z,11.23
2023-03-21T18:34:04.975Z,11.65
2023-03-21T18:36:31.624Z,10.15
2023-03-21T18:38:58.767Z,15.25
2023-03-21T18:41:25.907Z,12.50
2023-03-21T18:44:04.665Z,13.90
2023-03-21T18:46:41.750Z,10.90
2023-03-21T18:49:56.139Z,13.90
2023-03-21T18:51:55.747Z,11.15
2023-03-21T18:54:23.428Z,8.93
2023-03-21T18:59:39.617Z,9.05
2023-03-21T19:02:07.095Z,10.13
2023-03-21T19:04:34.233Z,11.65
2023-03-21T19:07:01.421Z,11.93
2023-03-21T19:09:31.960Z,9.45
2023-03-21T19:11:59.699Z,10.70
2023-03-21T19:14:27.635Z,13.75
2023-03-21T19:17:43.616Z,8.77
2023-03-21T19:19:43.114Z,8.38
2023-03-21T19:22:09.800Z,11.18
2023-03-21T19:24:36.726Z,10.98
2023-03-21T19:27:04.050Z,11.95
2023-03-21T19:29:30.988Z,12.35
2023-03-21T19:31:58.018Z,10.27
2023-03-21T19:34:24.681Z,12.23
2023-03-21T19:36:52.476Z,11.05
2023-03-21T19:39:22.290Z,12.02
2023-03-21T19:41:50.433Z,10.73
2023-03-21T19:44:17.470Z,12.48
2023-03-21T19:46:44.196Z,11.25
2023-03-21T19:49:11.155Z,9.25
2023-03-21T19:51:37.986Z,11.38
2023-03-21T19:54:06.073Z,12.43
2023-03-21T19:56:34.521Z,11.90
2023-03-21T19:59:03.144Z,12.88
2023-03-21T20:01:32.310Z,10.15
2023-03-21T20:03:59.635Z,12.73
2023-03-21T20:06:27.284Z,9.65
2023-03-21T20:09:34.112Z,12.98
2023-03-21T20:11:41.103Z,11.60
2023-03-21T20:14:07.778Z,11.85
2023-03-21T20:16:36.589Z,10.00
2023-03-21T20:19:05.694Z,11.77
2023-03-21T20:21:44.460Z,9.73
2023-03-21T20:24:16.782Z,11.68
2023-03-21T20:26:44.970Z,9.50
2023-03-21T20:30:03.904Z,12.07
2023-03-21T20:31:58.584Z,11.90
2023-03-21T20:34:25.354Z,11.30
2023-03-21T20:36:53.186Z,11.05
2023-03-21T20:39:19.941Z,9.85
2023-03-21T20:41:46.748Z,14.73
2023-03-21T20:44:44.760Z,11.13
2023-03-21T20:47:00.447Z,14.02
2023-03-21T20:49:28.407Z,15.90
2023-03-21T20:54:43.423Z,11.05
2023-03-21T20:57:10.096Z,11.13
2023-03-21T20:59:36.845Z,14.00
2023-03-21T21:02:03.767Z,14.90
2023-03-21T21:04:55.817Z,12.00
2023-03-21T21:07:20.867Z,11.05
2023-03-21T21:09:48.547Z,13.75
2023-03-21T21:12:18.937Z,9.90
2023-03-21T21:14:45.871Z,15.80
2023-03-21T21:17:54.106Z,13.02
2023-03-21T21:20:01.528Z,11.38
2023-03-21T21:22:28.648Z,8.85
2023-03-21T21:24:55.218Z,9.05
2023-03-21T21:27:21.858Z,9.05
2023-03-21T21:29:50.134Z,7.72
2023-03-21T21:32:18.654Z,8.63
2023-03-21T21:34:45.641Z,8.38
2023-03-21T21:37:12.378Z,7.38
2023-03-21T21:39:40.057Z,10.63
2023-03-21T21:42:06.693Z,10.15
2023-03-21T21:44:33.420Z,10.23
2023-03-21T21:47:00.424Z,9.25
2023-03-21T21:49:27.866Z,12.80
2023-03-21T21:51:56.188Z,8.80
2023-03-21T21:54:22.924Z,11.75
2023-03-21T21:56:53.969Z,7.45
2023-03-21T21:59:22.087Z,8.68
2023-03-21T22:01:51.145Z,12.02
2023-03-21T22:04:18.626Z,9.98
2023-03-21T22:06:47.379Z,14.15
2023-03-21T22:09:15.593Z,10.15
2023-03-21T22:11:42.294Z,6.65
2023-03-21T22:14:08.918Z,6.25
2023-03-21T22:16:35.810Z,13.43
2023-03-21T22:19:02.486Z,9.68
2023-03-21T22:21:29.163Z,11.60
2023-03-21T22:23:56.030Z,12.73
2023-03-21T22:26:22.979Z,11.90
2023-03-21T22:28:49.771Z,12.82
2023-03-21T22:31:17.378Z,11.52
2023-03-21T22:33:44.522Z,8.05
2023-03-21T22:36:11.568Z,11.98
2023-03-21T22:38:38.411Z,9.10
2023-03-21T22:41:05.905Z,8.40
2023-03-21T22:43:35.439Z,6.88
2023-03-21T22:46:06.536Z,9.63
2023-03-21T22:48:33.380Z,5.95
2023-03-21T22:51:00.620Z,9.15
2023-03-21T22:53:27.501Z,5.50
2023-03-21T22:55:54.368Z,14.07
2023-03-21T22:58:21.448Z,8.88
2023-03-21T23:00:48.214Z,9.10
2023-03-21T23:03:16.686Z,8.88
2023-03-21T23:05:44.608Z,14.23
2023-03-21T23:08:11.866Z,7.57
2023-03-21T23:10:40.364Z,10.45
2023-03-21T23:13:07.246Z,7.63
2023-03-21T23:15:34.071Z,10.77
2023-03-21T23:18:00.728Z,11.73
2023-03-21T23:20:27.569Z,10.57
2023-03-21T23:22:54.183Z,4.97
2023-03-21T23:25:20.997Z,6.75
2023-03-21T23:27:48.201Z,5.15
2023-03-21T23:30:15.344Z,9.02
2023-03-21T23:32:42.585Z,7.13
2023-03-21T23:35:10.181Z,9.45
2023-03-21T23:37:37.173Z,6.40
2023-03-21T23:40:06.379Z,7.72
2023-03-21T23:42:34.186Z,11.15
2023-03-21T23:45:01.004Z,12.35
2023-03-21T23:47:27.930Z,9.65
2023-03-21T23:49:54.532Z,9.40
2023-03-21T23:52:21.618Z,3.67
2023-03-21T23:54:48.295Z,13.80
2023-03-21T23:57:15.158Z,8.43
2023-03-21T23:59:41.865Z,10.05
